sensor_id;sensor_type;location;lat;lon;timestamp;P1;durP1;ratioP1;P2;durP2;ratioP2
53056;SDS011;38940;50.096;4.012;2023-05-07T00:00:02;7.80;;;2.05;;
53056;SDS011;38940;50.096;4.012;2023-05-07T00:02:28;6.82;;;2.00;;
53056;SDS011;38940;50.096;4.012;2023-05-07T00:04:54;6.40;;;2.10;;
53056;SDS011;38940;50.096;4.012;2023-05-07T00:07:21;7.60;;;2.45;;
53056;SDS011;38940;50.096;4.012;2023-05-07T00:09:46;9.30;;;2.30;;
53056;SDS011;38940;50.096;4.012;2023-05-07T00:12:12;6.25;;;2.05;;
53056;SDS011;38940;50.096;4.012;2023-05-07T00:14:38;10.48;;;2.88;;
53056;SDS011;38940;50.096;4.012;2023-05-07T00:17:04;9.07;;;2.05;;
53056;SDS011;38940;50.096;4.012;2023-05-07T00:19:30;6.73;;;1.90;;
53056;SDS011;38940;50.096;4.012;2023-05-07T00:21:56;6.70;;;1.88;;
53056;SDS011;38940;50.096;4.012;2023-05-07T00:24:23;5.88;;;1.67;;
53056;SDS011;38940;50.096;4.012;2023-05-07T00:26:49;4.25;;;1.42;;
53056;SDS011;38940;50.096;4.012;2023-05-07T00:29:16;8.07;;;1.73;;
53056;SDS011;38940;50.096;4.012;2023-05-07T00:31:42;8.18;;;1.80;;
53056;SDS011;38940;50.096;4.012;2023-05-07T00:34:08;4.25;;;1.77;;
53056;SDS011;38940;50.096;4.012;2023-05-07T00:36:34;9.80;;;2.10;;
53056;SDS011;38940;50.096;4.012;2023-05-07T00:39:00;4.13;;;1.67;;
53056;SDS011;38940;50.096;4.012;2023-05-07T00:41:28;8.77;;;1.83;;
53056;SDS011;38940;50.096;4.012;2023-05-07T00:43:55;6.60;;;2.00;;
53056;SDS011;38940;50.096;4.012;2023-05-07T00:46:21;5.13;;;1.52;;
53056;SDS011;38940;50.096;4.012;2023-05-07T00:48:49;5.38;;;1.60;;
53056;SDS011;38940;50.096;4.012;2023-05-07T00:51:15;6.05;;;1.60;;
53056;SDS011;38940;50.096;4.012;2023-05-07T00:53:41;6.10;;;1.80;;
53056;SDS011;38940;50.096;4.012;2023-05-07T00:56:07;5.15;;;1.80;;
53056;SDS011;38940;50.096;4.012;2023-05-07T00:58:34;5.72;;;1.60;;
53056;SDS011;38940;50.096;4.012;2023-05-07T01:01:00;7.45;;;1.63;;
53056;SDS011;38940;50.096;4.012;2023-05-07T01:03:26;7.57;;;1.92;;
53056;SDS011;38940;50.096;4.012;2023-05-07T01:05:52;5.72;;;1.90;;
53056;SDS011;38940;50.096;4.012;2023-05-07T01:08:19;5.13;;;1.67;;
53056;SDS011;38940;50.096;4.012;2023-05-07T01:10:45;6.38;;;1.70;;
53056;SDS011;38940;50.096;4.012;2023-05-07T01:13:12;8.65;;;1.90;;
53056;SDS011;38940;50.096;4.012;2023-05-07T01:15:38;6.85;;;1.60;;
53056;SDS011;38940;50.096;4.012;2023-05-07T01:18:06;7.37;;;1.77;;
53056;SDS011;38940;50.096;4.012;2023-05-07T01:20:32;6.90;;;1.80;;
53056;SDS011;38940;50.096;4.012;2023-05-07T01:22:58;5.93;;;2.10;;
53056;SDS011;38940;50.096;4.012;2023-05-07T01:25:25;6.63;;;1.70;;
53056;SDS011;38940;50.096;4.012;2023-05-07T01:27:51;11.52;;;1.88;;
53056;SDS011;38940;50.096;4.012;2023-05-07T01:30:17;6.82;;;1.80;;
53056;SDS011;38940;50.096;4.012;2023-05-07T01:32:48;7.25;;;1.67;;
53056;SDS011;38940;50.096;4.012;2023-05-07T01:35:20;6.45;;;2.00;;
53056;SDS011;38940;50.096;4.012;2023-05-07T01:37:47;4.25;;;1.70;;
53056;SDS011;38940;50.096;4.012;2023-05-07T01:40:13;7.10;;;1.90;;
53056;SDS011;38940;50.096;4.012;2023-05-07T01:42:40;4.85;;;1.60;;
53056;SDS011;38940;50.096;4.012;2023-05-07T01:45:07;5.80;;;1.95;;
53056;SDS011;38940;50.096;4.012;2023-05-07T01:47:33;7.38;;;2.00;;
53056;SDS011;38940;50.096;4.012;2023-05-07T01:49:59;7.53;;;1.73;;
53056;SDS011;38940;50.096;4.012;2023-05-07T01:52:25;6.88;;;1.90;;
53056;SDS011;38940;50.096;4.012;2023-05-07T01:54:53;8.63;;;1.88;;
53056;SDS011;38940;50.096;4.012;2023-05-07T01:57:19;5.38;;;1.75;;
53056;SDS011;38940;50.096;4.012;2023-05-07T01:59:45;3.58;;;1.50;;
53056;SDS011;38940;50.096;4.012;2023-05-07T02:02:11;4.57;;;1.73;;
53056;SDS011;38940;50.096;4.012;2023-05-07T02:04:37;6.95;;;1.60;;
53056;SDS011;38940;50.096;4.012;2023-05-07T02:07:03;3.88;;;1.70;;
53056;SDS011;38940;50.096;4.012;2023-05-07T02:09:29;6.57;;;1.67;;
53056;SDS011;38940;50.096;4.012;2023-05-07T02:11:55;5.03;;;1.48;;
53056;SDS011;38940;50.096;4.012;2023-05-07T02:14:21;5.35;;;1.60;;
53056;SDS011;38940;50.096;4.012;2023-05-07T02:16:47;6.63;;;1.80;;
53056;SDS011;38940;50.096;4.012;2023-05-07T02:19:13;6.22;;;1.80;;
53056;SDS011;38940;50.096;4.012;2023-05-07T02:21:39;5.72;;;1.67;;
53056;SDS011;38940;50.096;4.012;2023-05-07T02:24:05;5.00;;;1.75;;
53056;SDS011;38940;50.096;4.012;2023-05-07T02:26:31;9.13;;;1.80;;
53056;SDS011;38940;50.096;4.012;2023-05-07T02:28:57;8.13;;;1.65;;
53056;SDS011;38940;50.096;4.012;2023-05-07T02:31:23;6.38;;;1.67;;
53056;SDS011;38940;50.096;4.012;2023-05-07T02:33:49;5.32;;;1.50;;
53056;SDS011;38940;50.096;4.012;2023-05-07T02:36:15;6.37;;;1.70;;
53056;SDS011;38940;50.096;4.012;2023-05-07T02:38:41;5.97;;;1.50;;
53056;SDS011;38940;50.096;4.012;2023-05-07T02:41:07;7.38;;;1.30;;
53056;SDS011;38940;50.096;4.012;2023-05-07T02:43:33;8.30;;;1.50;;
53056;SDS011;38940;50.096;4.012;2023-05-07T02:46:06;8.90;;;1.47;;
53056;SDS011;38940;50.096;4.012;2023-05-07T02:48:32;7.95;;;1.45;;
53056;SDS011;38940;50.096;4.012;2023-05-07T02:50:58;2.90;;;1.30;;
53056;SDS011;38940;50.096;4.012;2023-05-07T02:53:25;3.55;;;1.50;;
53056;SDS011;38940;50.096;4.012;2023-05-07T02:55:55;6.43;;;1.50;;
53056;SDS011;38940;50.096;4.012;2023-05-07T02:58:21;6.50;;;1.60;;
53056;SDS011;38940;50.096;4.012;2023-05-07T03:00:47;7.25;;;1.60;;
53056;SDS011;38940;50.096;4.012;2023-05-07T03:03:13;5.32;;;1.70;;
53056;SDS011;38940;50.096;4.012;2023-05-07T03:05:39;5.30;;;1.60;;
53056;SDS011;38940;50.096;4.012;2023-05-07T03:08:06;5.72;;;1.63;;
53056;SDS011;38940;50.096;4.012;2023-05-07T03:10:32;4.43;;;1.30;;
53056;SDS011;38940;50.096;4.012;2023-05-07T03:12:58;4.60;;;1.42;;
53056;SDS011;38940;50.096;4.012;2023-05-07T03:15:24;6.47;;;1.60;;
53056;SDS011;38940;50.096;4.012;2023-05-07T03:17:50;7.05;;;1.50;;
53056;SDS011;38940;50.096;4.012;2023-05-07T03:20:16;4.45;;;1.50;;
53056;SDS011;38940;50.096;4.012;2023-05-07T03:22:42;4.43;;;1.33;;
53056;SDS011;38940;50.096;4.012;2023-05-07T03:25:08;4.75;;;1.50;;
53056;SDS011;38940;50.096;4.012;2023-05-07T03:27:34;5.80;;;1.50;;
53056;SDS011;38940;50.096;4.012;2023-05-07T03:30:00;3.95;;;1.40;;
53056;SDS011;38940;50.096;4.012;2023-05-07T03:32:26;5.10;;;1.50;;
53056;SDS011;38940;50.096;4.012;2023-05-07T03:34:52;4.70;;;1.30;;
53056;SDS011;38940;50.096;4.012;2023-05-07T03:37:18;6.20;;;1.35;;
53056;SDS011;38940;50.096;4.012;2023-05-07T03:39:45;5.73;;;1.60;;
53056;SDS011;38940;50.096;4.012;2023-05-07T03:42:10;4.95;;;1.25;;
53056;SDS011;38940;50.096;4.012;2023-05-07T03:44:36;7.15;;;1.60;;
53056;SDS011;38940;50.096;4.012;2023-05-07T03:47:03;4.32;;;1.30;;
53056;SDS011;38940;50.096;4.012;2023-05-07T03:49:29;5.00;;;1.33;;
53056;SDS011;38940;50.096;4.012;2023-05-07T03:51:55;8.98;;;1.45;;
53056;SDS011;38940;50.096;4.012;2023-05-07T03:54:21;4.35;;;1.45;;
53056;SDS011;38940;50.096;4.012;2023-05-07T03:56:47;4.47;;;1.60;;
53056;SDS011;38940;50.096;4.012;2023-05-07T03:59:13;3.35;;;1.35;;
53056;SDS011;38940;50.096;4.012;2023-05-07T04:01:40;8.48;;;1.40;;
53056;SDS011;38940;50.096;4.012;2023-05-07T04:04:06;6.05;;;1.48;;
53056;SDS011;38940;50.096;4.012;2023-05-07T04:06:32;5.07;;;1.60;;
53056;SDS011;38940;50.096;4.012;2023-05-07T04:08:58;3.60;;;1.30;;
53056;SDS011;38940;50.096;4.012;2023-05-07T04:11:24;6.97;;;1.50;;
53056;SDS011;38940;50.096;4.012;2023-05-07T04:13:50;4.43;;;1.50;;
53056;SDS011;38940;50.096;4.012;2023-05-07T04:16:16;4.78;;;1.52;;
53056;SDS011;38940;50.096;4.012;2023-05-07T04:18:42;5.20;;;1.67;;
53056;SDS011;38940;50.096;4.012;2023-05-07T04:21:18;4.88;;;1.38;;
53056;SDS011;38940;50.096;4.012;2023-05-07T04:23:45;5.28;;;1.55;;
53056;SDS011;38940;50.096;4.012;2023-05-07T04:26:11;7.60;;;1.33;;
53056;SDS011;38940;50.096;4.012;2023-05-07T04:28:37;4.40;;;1.65;;
53056;SDS011;38940;50.096;4.012;2023-05-07T04:31:04;4.60;;;1.50;;
53056;SDS011;38940;50.096;4.012;2023-05-07T04:33:30;4.93;;;1.63;;
53056;SDS011;38940;50.096;4.012;2023-05-07T04:35:56;6.43;;;1.38;;
53056;SDS011;38940;50.096;4.012;2023-05-07T04:38:22;3.30;;;1.40;;
53056;SDS011;38940;50.096;4.012;2023-05-07T04:40:48;4.00;;;1.63;;
53056;SDS011;38940;50.096;4.012;2023-05-07T04:43:14;5.40;;;1.58;;
53056;SDS011;38940;50.096;4.012;2023-05-07T04:45:41;6.90;;;1.83;;
53056;SDS011;38940;50.096;4.012;2023-05-07T04:48:08;5.30;;;1.50;;
53056;SDS011;38940;50.096;4.012;2023-05-07T04:50:34;3.58;;;1.50;;
53056;SDS011;38940;50.096;4.012;2023-05-07T04:53:00;3.47;;;1.40;;
53056;SDS011;38940;50.096;4.012;2023-05-07T04:55:27;4.32;;;1.50;;
53056;SDS011;38940;50.096;4.012;2023-05-07T04:57:53;5.40;;;1.58;;
53056;SDS011;38940;50.096;4.012;2023-05-07T05:00:19;5.47;;;1.50;;
53056;SDS011;38940;50.096;4.012;2023-05-07T05:02:45;6.82;;;1.60;;
53056;SDS011;38940;50.096;4.012;2023-05-07T05:05:11;6.47;;;1.80;;
53056;SDS011;38940;50.096;4.012;2023-05-07T05:07:37;5.18;;;1.80;;
53056;SDS011;38940;50.096;4.012;2023-05-07T05:10:04;4.93;;;1.98;;
53056;SDS011;38940;50.096;4.012;2023-05-07T05:12:31;6.78;;;1.70;;
53056;SDS011;38940;50.096;4.012;2023-05-07T05:14:57;4.30;;;1.70;;
53056;SDS011;38940;50.096;4.012;2023-05-07T05:17:23;6.23;;;1.63;;
53056;SDS011;38940;50.096;4.012;2023-05-07T05:19:49;4.13;;;1.58;;
53056;SDS011;38940;50.096;4.012;2023-05-07T05:22:15;3.47;;;1.52;;
53056;SDS011;38940;50.096;4.012;2023-05-07T05:24:41;3.90;;;1.63;;
53056;SDS011;38940;50.096;4.012;2023-05-07T05:27:07;5.05;;;1.52;;
53056;SDS011;38940;50.096;4.012;2023-05-07T05:29:33;3.55;;;1.60;;
53056;SDS011;38940;50.096;4.012;2023-05-07T05:31:59;4.43;;;1.60;;
53056;SDS011;38940;50.096;4.012;2023-05-07T05:34:25;3.73;;;1.40;;
53056;SDS011;38940;50.096;4.012;2023-05-07T05:36:52;5.13;;;1.58;;
53056;SDS011;38940;50.096;4.012;2023-05-07T05:39:18;4.18;;;1.48;;
53056;SDS011;38940;50.096;4.012;2023-05-07T05:41:44;5.32;;;1.63;;
53056;SDS011;38940;50.096;4.012;2023-05-07T05:44:12;5.45;;;1.40;;
53056;SDS011;38940;50.096;4.012;2023-05-07T05:46:38;5.35;;;1.50;;
53056;SDS011;38940;50.096;4.012;2023-05-07T05:49:04;5.60;;;1.77;;
53056;SDS011;38940;50.096;4.012;2023-05-07T05:51:30;4.82;;;1.60;;
53056;SDS011;38940;50.096;4.012;2023-05-07T05:53:56;2.75;;;1.50;;
53056;SDS011;38940;50.096;4.012;2023-05-07T05:56:22;5.25;;;2.00;;
53056;SDS011;38940;50.096;4.012;2023-05-07T05:58:48;5.35;;;1.60;;
53056;SDS011;38940;50.096;4.012;2023-05-07T06:01:14;7.88;;;2.13;;
53056;SDS011;38940;50.096;4.012;2023-05-07T06:03:40;7.03;;;2.00;;
53056;SDS011;38940;50.096;4.012;2023-05-07T06:06:06;4.55;;;1.92;;
53056;SDS011;38940;50.096;4.012;2023-05-07T06:08:32;5.47;;;1.60;;
53056;SDS011;38940;50.096;4.012;2023-05-07T06:10:58;2.92;;;1.70;;
53056;SDS011;38940;50.096;4.012;2023-05-07T06:13:25;5.47;;;1.90;;
53056;SDS011;38940;50.096;4.012;2023-05-07T06:15:51;5.43;;;1.83;;
53056;SDS011;38940;50.096;4.012;2023-05-07T06:18:17;6.73;;;2.30;;
53056;SDS011;38940;50.096;4.012;2023-05-07T06:20:43;6.20;;;2.00;;
53056;SDS011;38940;50.096;4.012;2023-05-07T06:23:08;6.05;;;1.80;;
53056;SDS011;38940;50.096;4.012;2023-05-07T06:25:34;4.13;;;1.88;;
53056;SDS011;38940;50.096;4.012;2023-05-07T06:28:00;4.70;;;2.20;;
53056;SDS011;38940;50.096;4.012;2023-05-07T06:30:26;3.42;;;1.67;;
53056;SDS011;38940;50.096;4.012;2023-05-07T06:32:52;5.07;;;1.77;;
53056;SDS011;38940;50.096;4.012;2023-05-07T06:35:18;5.75;;;1.90;;
53056;SDS011;38940;50.096;4.012;2023-05-07T06:37:44;5.83;;;1.90;;
53056;SDS011;38940;50.096;4.012;2023-05-07T06:40:10;6.30;;;2.00;;
53056;SDS011;38940;50.096;4.012;2023-05-07T06:42:37;6.50;;;1.90;;
53056;SDS011;38940;50.096;4.012;2023-05-07T06:45:03;4.45;;;1.83;;
53056;SDS011;38940;50.096;4.012;2023-05-07T06:47:29;5.80;;;2.03;;
53056;SDS011;38940;50.096;4.012;2023-05-07T06:49:55;9.73;;;3.38;;
53056;SDS011;38940;50.096;4.012;2023-05-07T06:52:21;5.82;;;2.00;;
53056;SDS011;38940;50.096;4.012;2023-05-07T06:54:47;4.95;;;1.90;;
53056;SDS011;38940;50.096;4.012;2023-05-07T06:57:13;5.67;;;2.20;;
53056;SDS011;38940;50.096;4.012;2023-05-07T06:59:39;3.75;;;2.00;;
53056;SDS011;38940;50.096;4.012;2023-05-07T07:02:05;4.50;;;1.90;;
53056;SDS011;38940;50.096;4.012;2023-05-07T07:04:31;3.83;;;1.90;;
53056;SDS011;38940;50.096;4.012;2023-05-07T07:06:57;4.65;;;1.85;;
53056;SDS011;38940;50.096;4.012;2023-05-07T07:09:23;6.05;;;2.00;;
53056;SDS011;38940;50.096;4.012;2023-05-07T07:11:49;6.88;;;1.80;;
53056;SDS011;38940;50.096;4.012;2023-05-07T07:14:15;5.65;;;2.05;;
53056;SDS011;38940;50.096;4.012;2023-05-07T07:16:41;3.80;;;1.90;;
53056;SDS011;38940;50.096;4.012;2023-05-07T07:19:07;6.15;;;1.83;;
53056;SDS011;38940;50.096;4.012;2023-05-07T07:21:33;7.45;;;1.83;;
53056;SDS011;38940;50.096;4.012;2023-05-07T07:23:59;5.97;;;2.03;;
53056;SDS011;38940;50.096;4.012;2023-05-07T07:26:25;5.93;;;2.22;;
53056;SDS011;38940;50.096;4.012;2023-05-07T07:28:51;4.87;;;1.80;;
53056;SDS011;38940;50.096;4.012;2023-05-07T07:31:17;4.05;;;1.90;;
53056;SDS011;38940;50.096;4.012;2023-05-07T07:33:43;4.07;;;1.70;;
53056;SDS011;38940;50.096;4.012;2023-05-07T07:36:09;5.32;;;2.05;;
53056;SDS011;38940;50.096;4.012;2023-05-07T07:38:36;5.23;;;1.90;;
53056;SDS011;38940;50.096;4.012;2023-05-07T07:41:02;3.00;;;1.80;;
53056;SDS011;38940;50.096;4.012;2023-05-07T07:43:28;6.90;;;1.85;;
53056;SDS011;38940;50.096;4.012;2023-05-07T07:45:54;5.40;;;2.20;;
53056;SDS011;38940;50.096;4.012;2023-05-07T07:48:20;5.20;;;2.05;;
53056;SDS011;38940;50.096;4.012;2023-05-07T07:50:48;4.15;;;1.98;;
53056;SDS011;38940;50.096;4.012;2023-05-07T07:53:15;5.38;;;2.10;;
53056;SDS011;38940;50.096;4.012;2023-05-07T07:55:41;3.22;;;1.80;;
53056;SDS011;38940;50.096;4.012;2023-05-07T07:58:07;4.28;;;1.70;;
53056;SDS011;38940;50.096;4.012;2023-05-07T08:00:33;4.77;;;1.93;;
53056;SDS011;38940;50.096;4.012;2023-05-07T08:02:59;4.57;;;1.67;;
53056;SDS011;38940;50.096;4.012;2023-05-07T08:05:25;6.45;;;1.80;;
53056;SDS011;38940;50.096;4.012;2023-05-07T08:07:51;2.53;;;1.60;;
53056;SDS011;38940;50.096;4.012;2023-05-07T08:10:18;4.50;;;1.83;;
53056;SDS011;38940;50.096;4.012;2023-05-07T08:12:48;6.85;;;1.65;;
53056;SDS011;38940;50.096;4.012;2023-05-07T08:15:14;4.32;;;2.22;;
53056;SDS011;38940;50.096;4.012;2023-05-07T08:17:40;5.35;;;1.63;;
53056;SDS011;38940;50.096;4.012;2023-05-07T08:20:06;5.28;;;1.70;;
53056;SDS011;38940;50.096;4.012;2023-05-07T08:22:33;3.63;;;1.70;;
53056;SDS011;38940;50.096;4.012;2023-05-07T08:25:00;5.07;;;1.80;;
53056;SDS011;38940;50.096;4.012;2023-05-07T08:27:26;5.13;;;1.95;;
53056;SDS011;38940;50.096;4.012;2023-05-07T08:29:52;3.42;;;1.70;;
53056;SDS011;38940;50.096;4.012;2023-05-07T08:32:18;2.77;;;1.70;;
53056;SDS011;38940;50.096;4.012;2023-05-07T08:34:44;3.17;;;1.65;;
53056;SDS011;38940;50.096;4.012;2023-05-07T08:37:10;3.83;;;1.92;;
53056;SDS011;38940;50.096;4.012;2023-05-07T08:39:36;5.55;;;1.60;;
53056;SDS011;38940;50.096;4.012;2023-05-07T08:42:02;3.15;;;1.95;;
53056;SDS011;38940;50.096;4.012;2023-05-07T08:44:33;4.18;;;1.80;;
53056;SDS011;38940;50.096;4.012;2023-05-07T08:47:02;3.97;;;1.83;;
53056;SDS011;38940;50.096;4.012;2023-05-07T08:49:28;3.65;;;1.80;;
53056;SDS011;38940;50.096;4.012;2023-05-07T08:51:54;4.32;;;1.55;;
53056;SDS011;38940;50.096;4.012;2023-05-07T08:54:21;3.28;;;1.50;;
53056;SDS011;38940;50.096;4.012;2023-05-07T08:56:47;3.20;;;1.55;;
53056;SDS011;38940;50.096;4.012;2023-05-07T08:59:13;2.85;;;1.50;;
53056;SDS011;38940;50.096;4.012;2023-05-07T09:01:39;3.42;;;1.80;;
53056;SDS011;38940;50.096;4.012;2023-05-07T09:04:05;3.10;;;1.50;;
53056;SDS011;38940;50.096;4.012;2023-05-07T09:06:32;5.47;;;1.58;;
53056;SDS011;38940;50.096;4.012;2023-05-07T09:08:58;6.00;;;1.80;;
53056;SDS011;38940;50.096;4.012;2023-05-07T09:11:26;4.53;;;1.65;;
53056;SDS011;38940;50.096;4.012;2023-05-07T09:13:55;2.92;;;1.55;;
53056;SDS011;38940;50.096;4.012;2023-05-07T09:16:23;2.40;;;1.40;;
53056;SDS011;38940;50.096;4.012;2023-05-07T09:18:52;2.38;;;1.27;;
53056;SDS011;38940;50.096;4.012;2023-05-07T09:21:19;3.47;;;1.60;;
53056;SDS011;38940;50.096;4.012;2023-05-07T09:23:47;9.50;;;4.78;;
53056;SDS011;38940;50.096;4.012;2023-05-07T09:26:13;3.45;;;1.77;;
53056;SDS011;38940;50.096;4.012;2023-05-07T09:28:40;5.68;;;2.35;;
53056;SDS011;38940;50.096;4.012;2023-05-07T09:31:07;2.80;;;1.67;;
53056;SDS011;38940;50.096;4.012;2023-05-07T09:33:33;2.35;;;1.15;;
53056;SDS011;38940;50.096;4.012;2023-05-07T09:36:09;2.97;;;1.20;;
53056;SDS011;38940;50.096;4.012;2023-05-07T09:38:36;2.47;;;1.20;;
53056;SDS011;38940;50.096;4.012;2023-05-07T09:41:06;2.92;;;0.70;;
53056;SDS011;38940;50.096;4.012;2023-05-07T09:43:33;4.72;;;0.80;;
53056;SDS011;38940;50.096;4.012;2023-05-07T09:46:02;2.63;;;1.15;;
53056;SDS011;38940;50.096;4.012;2023-05-07T09:48:29;2.10;;;0.80;;
53056;SDS011;38940;50.096;4.012;2023-05-07T09:50:55;4.05;;;1.10;;
53056;SDS011;38940;50.096;4.012;2023-05-07T09:53:25;2.78;;;1.00;;
53056;SDS011;38940;50.096;4.012;2023-05-07T09:55:52;2.40;;;0.85;;
53056;SDS011;38940;50.096;4.012;2023-05-07T09:58:18;2.13;;;0.50;;
53056;SDS011;38940;50.096;4.012;2023-05-07T10:00:44;1.40;;;0.65;;
53056;SDS011;38940;50.096;4.012;2023-05-07T10:03:11;1.75;;;0.70;;
53056;SDS011;38940;50.096;4.012;2023-05-07T10:05:39;2.85;;;0.60;;
53056;SDS011;38940;50.096;4.012;2023-05-07T10:08:05;1.10;;;0.68;;
53056;SDS011;38940;50.096;4.012;2023-05-07T10:10:32;1.10;;;0.55;;
53056;SDS011;38940;50.096;4.012;2023-05-07T10:12:59;2.33;;;0.70;;
53056;SDS011;38940;50.096;4.012;2023-05-07T10:15:26;5.32;;;0.70;;
53056;SDS011;38940;50.096;4.012;2023-05-07T10:17:52;2.30;;;0.77;;
53056;SDS011;38940;50.096;4.012;2023-05-07T10:20:19;1.80;;;0.70;;
53056;SDS011;38940;50.096;4.012;2023-05-07T10:22:45;1.40;;;0.70;;
53056;SDS011;38940;50.096;4.012;2023-05-07T10:25:21;2.10;;;0.90;;
53056;SDS011;38940;50.096;4.012;2023-05-07T10:27:48;6.35;;;1.10;;
53056;SDS011;38940;50.096;4.012;2023-05-07T10:32:51;1.45;;;0.90;;
53056;SDS011;38940;50.096;4.012;2023-05-07T10:35:20;3.97;;;1.10;;
53056;SDS011;38940;50.096;4.012;2023-05-07T10:37:47;3.47;;;1.10;;
53056;SDS011;38940;50.096;4.012;2023-05-07T10:40:13;1.77;;;0.73;;
53056;SDS011;38940;50.096;4.012;2023-05-07T10:42:53;2.97;;;1.00;;
53056;SDS011;38940;50.096;4.012;2023-05-07T10:45:19;3.45;;;1.00;;
53056;SDS011;38940;50.096;4.012;2023-05-07T10:50:30;2.40;;;1.20;;
53056;SDS011;38940;50.096;4.012;2023-05-07T10:55:41;1.88;;;1.00;;
53056;SDS011;38940;50.096;4.012;2023-05-07T10:58:26;3.97;;;1.08;;
53056;SDS011;38940;50.096;4.012;2023-05-07T11:00:59;1.48;;;0.88;;
53056;SDS011;38940;50.096;4.012;2023-05-07T11:03:25;1.52;;;0.80;;
53056;SDS011;38940;50.096;4.012;2023-05-07T11:06:14;4.10;;;1.08;;
53056;SDS011;38940;50.096;4.012;2023-05-07T11:08:53;3.08;;;1.00;;
53056;SDS011;38940;50.096;4.012;2023-05-07T11:11:19;3.60;;;0.90;;
53056;SDS011;38940;50.096;4.012;2023-05-07T11:13:46;2.95;;;0.90;;
53056;SDS011;38940;50.096;4.012;2023-05-07T11:18:48;1.70;;;0.73;;
53056;SDS011;38940;50.096;4.012;2023-05-07T11:21:31;2.00;;;0.80;;
53056;SDS011;38940;50.096;4.012;2023-05-07T11:23:58;3.70;;;0.80;;
53056;SDS011;38940;50.096;4.012;2023-05-07T11:26:24;2.85;;;0.80;;
53056;SDS011;38940;50.096;4.012;2023-05-07T11:28:50;1.88;;;0.80;;
53056;SDS011;38940;50.096;4.012;2023-05-07T11:31:20;1.83;;;0.75;;
53056;SDS011;38940;50.096;4.012;2023-05-07T11:33:47;1.13;;;0.70;;
53056;SDS011;38940;50.096;4.012;2023-05-07T11:36:13;4.40;;;1.00;;
53056;SDS011;38940;50.096;4.012;2023-05-07T11:38:39;2.50;;;1.10;;
53056;SDS011;38940;50.096;4.012;2023-05-07T11:41:05;1.67;;;1.00;;
53056;SDS011;38940;50.096;4.012;2023-05-07T11:43:31;1.70;;;0.90;;
53056;SDS011;38940;50.096;4.012;2023-05-07T11:46:10;1.73;;;0.80;;
53056;SDS011;38940;50.096;4.012;2023-05-07T11:48:37;2.00;;;0.73;;
53056;SDS011;38940;50.096;4.012;2023-05-07T11:51:03;5.60;;;1.00;;
53056;SDS011;38940;50.096;4.012;2023-05-07T11:53:36;2.33;;;0.70;;
53056;SDS011;38940;50.096;4.012;2023-05-07T11:56:06;1.45;;;0.80;;
53056;SDS011;38940;50.096;4.012;2023-05-07T11:58:33;2.35;;;0.65;;
53056;SDS011;38940;50.096;4.012;2023-05-07T12:00:59;1.42;;;0.70;;
53056;SDS011;38940;50.096;4.012;2023-05-07T12:03:25;1.10;;;0.70;;
53056;SDS011;38940;50.096;4.012;2023-05-07T12:05:51;2.60;;;0.70;;
53056;SDS011;38940;50.096;4.012;2023-05-07T12:08:17;1.90;;;0.70;;
53056;SDS011;38940;50.096;4.012;2023-05-07T12:10:44;1.60;;;0.63;;
53056;SDS011;38940;50.096;4.012;2023-05-07T12:13:14;1.63;;;0.70;;
53056;SDS011;38940;50.096;4.012;2023-05-07T12:15:40;1.38;;;0.70;;
53056;SDS011;38940;50.096;4.012;2023-05-07T12:18:06;2.72;;;0.70;;
53056;SDS011;38940;50.096;4.012;2023-05-07T12:20:33;1.40;;;0.60;;
53056;SDS011;38940;50.096;4.012;2023-05-07T12:22:59;0.93;;;0.65;;
53056;SDS011;38940;50.096;4.012;2023-05-07T12:25:26;0.93;;;0.57;;
53056;SDS011;38940;50.096;4.012;2023-05-07T12:27:52;0.80;;;0.52;;
53056;SDS011;38940;50.096;4.012;2023-05-07T12:30:18;0.68;;;0.50;;
53056;SDS011;38940;50.096;4.012;2023-05-07T12:32:45;0.77;;;0.43;;
53056;SDS011;38940;50.096;4.012;2023-05-07T12:35:11;1.90;;;0.63;;
53056;SDS011;38940;50.096;4.012;2023-05-07T12:37:37;1.20;;;0.50;;
53056;SDS011;38940;50.096;4.012;2023-05-07T12:40:10;2.80;;;0.50;;
53056;SDS011;38940;50.096;4.012;2023-05-07T12:42:36;2.10;;;0.30;;
53056;SDS011;38940;50.096;4.012;2023-05-07T12:47:35;1.35;;;0.50;;
53056;SDS011;38940;50.096;4.012;2023-05-07T12:50:02;0.80;;;0.40;;
53056;SDS011;38940;50.096;4.012;2023-05-07T12:52:30;2.17;;;0.55;;
53056;SDS011;38940;50.096;4.012;2023-05-07T12:54:56;3.28;;;0.70;;
53056;SDS011;38940;50.096;4.012;2023-05-07T12:57:22;1.10;;;0.50;;
53056;SDS011;38940;50.096;4.012;2023-05-07T12:59:48;2.13;;;0.43;;
53056;SDS011;38940;50.096;4.012;2023-05-07T13:02:14;0.70;;;0.38;;
53056;SDS011;38940;50.096;4.012;2023-05-07T13:04:40;0.47;;;0.40;;
53056;SDS011;38940;50.096;4.012;2023-05-07T13:07:06;1.30;;;0.50;;
53056;SDS011;38940;50.096;4.012;2023-05-07T13:09:32;0.87;;;0.40;;
53056;SDS011;38940;50.096;4.012;2023-05-07T13:11:59;0.50;;;0.30;;
53056;SDS011;38940;50.096;4.012;2023-05-07T13:14:26;0.93;;;0.40;;
53056;SDS011;38940;50.096;4.012;2023-05-07T13:16:52;0.40;;;0.28;;
53056;SDS011;38940;50.096;4.012;2023-05-07T13:19:18;2.40;;;0.50;;
53056;SDS011;38940;50.096;4.012;2023-05-07T13:21:44;2.10;;;0.65;;
53056;SDS011;38940;50.096;4.012;2023-05-07T13:24:10;0.98;;;0.30;;
53056;SDS011;38940;50.096;4.012;2023-05-07T13:26:36;0.85;;;0.40;;
53056;SDS011;38940;50.096;4.012;2023-05-07T13:29:02;0.45;;;0.30;;
53056;SDS011;38940;50.096;4.012;2023-05-07T13:31:28;0.60;;;0.40;;
53056;SDS011;38940;50.096;4.012;2023-05-07T13:33:54;1.38;;;0.60;;
53056;SDS011;38940;50.096;4.012;2023-05-07T13:36:21;1.70;;;0.30;;
53056;SDS011;38940;50.096;4.012;2023-05-07T13:38:47;0.63;;;0.30;;
53056;SDS011;38940;50.096;4.012;2023-05-07T13:41:13;0.43;;;0.30;;
53056;SDS011;38940;50.096;4.012;2023-05-07T13:43:39;2.45;;;0.30;;
53056;SDS011;38940;50.096;4.012;2023-05-07T13:46:05;0.30;;;0.30;;
53056;SDS011;38940;50.096;4.012;2023-05-07T13:48:31;0.50;;;0.30;;
53056;SDS011;38940;50.096;4.012;2023-05-07T13:50:57;2.40;;;0.40;;
53056;SDS011;38940;50.096;4.012;2023-05-07T13:53:23;0.43;;;0.35;;
53056;SDS011;38940;50.096;4.012;2023-05-07T13:55:49;1.33;;;0.50;;
53056;SDS011;38940;50.096;4.012;2023-05-07T13:58:15;0.90;;;0.35;;
53056;SDS011;38940;50.096;4.012;2023-05-07T14:00:41;0.88;;;0.20;;
53056;SDS011;38940;50.096;4.012;2023-05-07T14:03:07;1.77;;;0.30;;
53056;SDS011;38940;50.096;4.012;2023-05-07T14:05:33;0.65;;;0.30;;
53056;SDS011;38940;50.096;4.012;2023-05-07T14:08:00;0.20;;;0.20;;
53056;SDS011;38940;50.096;4.012;2023-05-07T14:10:27;0.57;;;0.30;;
53056;SDS011;38940;50.096;4.012;2023-05-07T14:12:53;0.68;;;0.30;;
53056;SDS011;38940;50.096;4.012;2023-05-07T14:15:26;1.10;;;0.40;;
53056;SDS011;38940;50.096;4.012;2023-05-07T14:21:01;2.23;;;0.23;;
53056;SDS011;38940;50.096;4.012;2023-05-07T14:23:26;0.50;;;0.30;;
53056;SDS011;38940;50.096;4.012;2023-05-07T14:25:53;1.92;;;0.20;;
53056;SDS011;38940;50.096;4.012;2023-05-07T14:28:19;1.17;;;0.60;;
53056;SDS011;38940;50.096;4.012;2023-05-07T14:30:46;1.50;;;0.50;;
53056;SDS011;38940;50.096;4.012;2023-05-07T14:33:12;1.80;;;0.60;;
53056;SDS011;38940;50.096;4.012;2023-05-07T14:35:38;2.10;;;0.40;;
53056;SDS011;38940;50.096;4.012;2023-05-07T14:38:04;0.30;;;0.30;;
53056;SDS011;38940;50.096;4.012;2023-05-07T14:40:30;0.57;;;0.40;;
53056;SDS011;38940;50.096;4.012;2023-05-07T14:42:56;0.67;;;0.40;;
53056;SDS011;38940;50.096;4.012;2023-05-07T14:45:22;1.27;;;0.50;;
53056;SDS011;38940;50.096;4.012;2023-05-07T14:47:48;0.43;;;0.40;;
53056;SDS011;38940;50.096;4.012;2023-05-07T14:50:15;0.40;;;0.40;;
53056;SDS011;38940;50.096;4.012;2023-05-07T14:52:41;0.60;;;0.30;;
53056;SDS011;38940;50.096;4.012;2023-05-07T14:55:07;0.50;;;0.20;;
53056;SDS011;38940;50.096;4.012;2023-05-07T14:57:33;1.38;;;0.28;;
53056;SDS011;38940;50.096;4.012;2023-05-07T15:00:00;0.10;;;0.10;;